createdAt,value
2023-05-23T00:01:09.219Z,15.65
2023-05-23T00:05:15.413Z,15.72
2023-05-23T00:09:18.386Z,15.76
2023-05-23T00:13:21.163Z,15.75
2023-05-23T00:17:25.393Z,15.64
2023-05-23T00:21:30.694Z,15.62
2023-05-23T00:25:35.791Z,15.67
2023-05-23T00:29:39.052Z,15.69
2023-05-23T00:33:41.798Z,15.78
2023-05-23T00:37:45.913Z,15.81
2023-05-23T00:41:52.132Z,15.72
2023-05-23T00:45:55.606Z,15.62
2023-05-23T00:49:58.568Z,15.56
2023-05-23T00:54:06.119Z,15.55
2023-05-23T00:58:09.518Z,15.63
2023-05-23T01:02:13.566Z,15.55
2023-05-23T01:06:17.586Z,15.38
2023-05-23T01:10:50.573Z,15.36
2023-05-23T01:15:00.461Z,15.28
2023-05-23T01:19:19.073Z,15.36
2023-05-23T01:23:59.242Z,15.33
2023-05-23T01:28:09.183Z,15.40
2023-05-23T01:32:14.082Z,15.35
2023-05-23T01:36:17.361Z,15.28
2023-05-23T01:40:24.114Z,15.31
2023-05-23T01:44:28.262Z,15.25
2023-05-23T01:48:33.312Z,15.22
2023-05-23T01:52:37.777Z,15.09
2023-05-23T01:56:43.059Z,15.01
2023-05-23T02:00:49.041Z,14.98
2023-05-23T02:04:57.266Z,14.85
2023-05-23T02:09:00.404Z,14.76
2023-05-23T02:13:03.766Z,14.64
2023-05-23T02:17:10.186Z,14.56
2023-05-23T02:21:13.303Z,14.47
2023-05-23T02:25:16.984Z,14.51
2023-05-23T02:29:19.861Z,14.45
2023-05-23T02:33:24.208Z,14.37
2023-05-23T02:37:27.819Z,14.40
2023-05-23T02:41:30.684Z,14.42
2023-05-23T02:45:34.594Z,14.45
2023-05-23T02:49:38.911Z,14.44
2023-05-23T02:53:43.371Z,14.39
2023-05-23T02:57:46.686Z,14.42
2023-05-23T03:01:49.740Z,14.33
2023-05-23T03:05:54.030Z,14.36
2023-05-23T03:09:56.942Z,14.31
2023-05-23T03:14:00.215Z,14.38
2023-05-23T03:18:03.273Z,14.28
2023-05-23T03:22:09.107Z,14.33
2023-05-23T03:26:11.884Z,14.28
2023-05-23T03:30:15.341Z,14.34
2023-05-23T03:34:18.229Z,14.26
2023-05-23T03:38:22.612Z,14.27
2023-05-23T03:42:25.991Z,14.23
2023-05-23T03:46:28.927Z,14.25
2023-05-23T03:50:31.992Z,14.31
2023-05-23T03:54:37.181Z,14.28
2023-05-23T03:58:40.298Z,14.20
2023-05-23T04:02:50.015Z,14.03
2023-05-23T04:06:55.925Z,14.05
2023-05-23T04:11:00.338Z,14.05
2023-05-23T04:15:05.176Z,14.03
2023-05-23T04:19:10.717Z,14.05
2023-05-23T04:23:13.612Z,14.07
2023-05-23T04:27:20.102Z,14.10
2023-05-23T04:31:23.551Z,14.07
2023-05-23T04:35:26.808Z,13.93
2023-05-23T04:39:30.176Z,13.98
2023-05-23T04:43:58.492Z,13.84
2023-05-23T04:48:04.970Z,13.73
2023-05-23T04:52:20.247Z,13.81
2023-05-23T04:56:27.302Z,13.71
2023-05-23T05:00:32.539Z,13.65
2023-05-23T05:04:36.533Z,13.72
2023-05-23T05:08:40.749Z,13.66
2023-05-23T05:12:44.670Z,13.63
2023-05-23T05:16:50.264Z,13.58
2023-05-23T05:20:53.378Z,13.49
2023-05-23T05:24:56.690Z,13.54
2023-05-23T05:29:01.442Z,13.58
2023-05-23T05:33:07.827Z,13.55
2023-05-23T05:37:14.126Z,13.64
2023-05-23T05:41:18.483Z,13.62
2023-05-23T05:45:25.059Z,13.65
2023-05-23T05:49:29.460Z,13.68
2023-05-23T05:53:33.067Z,13.64
2023-05-23T05:57:38.681Z,13.72
2023-05-23T06:01:42.038Z,13.70
2023-05-23T06:05:46.280Z,13.71
2023-05-23T06:09:49.536Z,13.57
2023-05-23T06:13:52.515Z,13.49
2023-05-23T06:17:55.457Z,13.51
2023-05-23T06:22:01.487Z,13.52
2023-05-23T06:26:07.958Z,13.52
2023-05-23T06:30:11.802Z,13.53
2023-05-23T06:34:14.590Z,13.55
2023-05-23T06:38:19.249Z,13.57
2023-05-23T06:42:22.029Z,13.44
2023-05-23T06:46:40.546Z,13.41
2023-05-23T06:50:43.841Z,13.31
2023-05-23T06:54:49.176Z,13.30
2023-05-23T06:58:52.975Z,13.21
2023-05-23T07:03:01.191Z,13.07
2023-05-23T07:07:24.399Z,13.06
2023-05-23T07:11:29.149Z,13.00
2023-05-23T07:16:04.752Z,13.04
2023-05-23T07:20:10.851Z,12.91
2023-05-23T07:24:46.336Z,12.80
2023-05-23T07:28:51.400Z,12.71
2023-05-23T07:32:56.032Z,12.66
2023-05-23T07:36:59.383Z,12.59
2023-05-23T07:41:11.986Z,12.52
2023-05-23T07:45:17.873Z,12.52
2023-05-23T07:49:21.023Z,12.51
2023-05-23T07:53:25.066Z,12.46
2023-05-23T07:57:28.797Z,12.35
2023-05-23T08:01:33.132Z,12.32
2023-05-23T08:05:40.695Z,12.34
2023-05-23T08:09:44.401Z,12.26
2023-05-23T08:13:50.754Z,12.36
2023-05-23T08:18:11.321Z,12.41
2023-05-23T08:22:14.320Z,12.43
2023-05-23T08:26:17.563Z,12.81
2023-05-23T08:30:23.131Z,13.21
2023-05-23T08:34:27.720Z,13.51
2023-05-23T08:38:30.629Z,13.57
2023-05-23T08:42:43.480Z,13.62
2023-05-23T08:46:49.888Z,13.76
2023-05-23T08:51:18.797Z,14.07
2023-05-23T08:55:26.431Z,14.05
2023-05-23T08:59:31.239Z,14.10
2023-05-23T09:03:37.570Z,14.14
2023-05-23T09:07:52.224Z,14.07
2023-05-23T09:11:56.949Z,14.12
2023-05-23T09:16:04.481Z,14.08
2023-05-23T09:20:15.906Z,14.28
2023-05-23T09:24:35.017Z,14.24
2023-05-23T09:28:40.504Z,14.27
2023-05-23T09:32:44.740Z,14.31
2023-05-23T09:36:48.537Z,14.09
2023-05-23T09:40:57.917Z,14.02
2023-05-23T09:45:03.787Z,13.86
2023-05-23T09:49:18.012Z,13.96
2023-05-23T09:53:22.764Z,14.01
2023-05-23T09:57:28.481Z,14.20
2023-05-23T10:01:34.166Z,14.32
2023-05-23T10:05:39.682Z,14.54
2023-05-23T10:09:46.652Z,14.70
2023-05-23T10:13:56.679Z,14.75
2023-05-23T10:18:12.662Z,14.79
2023-05-23T10:22:16.883Z,14.96
2023-05-23T10:26:20.278Z,15.56
2023-05-23T10:30:24.398Z,16.01
2023-05-23T10:34:33.683Z,16.46
2023-05-23T10:38:42.536Z,16.52
2023-05-23T10:42:53.953Z,16.51
2023-05-23T10:47:01.683Z,16.91
2023-05-23T10:51:07.202Z,17.08
2023-05-23T10:55:18.105Z,17.01
2023-05-23T10:59:23.786Z,17.07
2023-05-23T11:03:36.231Z,17.06
2023-05-23T11:07:41.994Z,17.05
2023-05-23T11:12:04.725Z,16.90
2023-05-23T11:16:26.370Z,16.94
2023-05-23T11:20:31.905Z,16.87
2023-05-23T11:24:52.851Z,16.75
2023-05-23T11:29:00.652Z,16.67
2023-05-23T11:33:09.394Z,16.65
2023-05-23T11:37:14.176Z,16.80
2023-05-23T11:41:17.098Z,16.98
2023-05-23T11:45:21.013Z,17.26
2023-05-23T11:49:23.834Z,17.51
2023-05-23T11:53:34.102Z,17.78
2023-05-23T11:57:39.354Z,17.89
2023-05-23T12:01:42.535Z,17.76
2023-05-23T12:05:46.138Z,17.67
2023-05-23T12:09:50.337Z,17.54
2023-05-23T12:13:53.959Z,17.83
2023-05-23T12:17:57.316Z,18.00
2023-05-23T12:22:07.298Z,17.87
2023-05-23T12:26:13.676Z,18.11
2023-05-23T12:30:18.038Z,18.34
2023-05-23T12:34:22.808Z,18.02
2023-05-23T12:38:30.056Z,17.92
2023-05-23T12:42:48.325Z,18.06
2023-05-23T12:46:51.353Z,17.91
2023-05-23T12:50:54.798Z,17.87
2023-05-23T12:54:58.052Z,18.10
2023-05-23T12:59:06.029Z,18.39
2023-05-23T13:03:09.850Z,18.53
2023-05-23T13:07:12.929Z,18.21
2023-05-23T13:11:15.969Z,17.85
2023-05-23T13:15:20.410Z,17.68
2023-05-23T13:19:34.357Z,17.36
2023-05-23T13:24:05.164Z,17.21
2023-05-23T13:28:24.476Z,17.09
2023-05-23T13:32:29.637Z,16.99
2023-05-23T13:36:34.078Z,17.46
2023-05-23T13:40:37.075Z,17.68
2023-05-23T13:44:40.971Z,17.80
2023-05-23T13:48:45.649Z,17.58
2023-05-23T13:52:51.820Z,17.25
2023-05-23T13:56:55.429Z,17.38
2023-05-23T14:00:58.520Z,17.86
2023-05-23T14:05:05.204Z,17.76
2023-05-23T14:09:09.247Z,17.98
2023-05-23T14:13:18.899Z,17.73
2023-05-23T14:17:22.345Z,17.46
2023-05-23T14:21:29.254Z,17.53
2023-05-23T14:25:32.832Z,17.66
2023-05-23T14:29:35.801Z,17.71
2023-05-23T14:33:49.871Z,17.46
2023-05-23T14:37:54.785Z,17.43
2023-05-23T14:41:59.059Z,17.29
2023-05-23T14:46:02.237Z,17.43
2023-05-23T14:50:06.467Z,17.68
2023-05-23T14:54:16.099Z,17.59
2023-05-23T14:58:20.215Z,17.02
2023-05-23T15:02:26.152Z,16.69
2023-05-23T15:06:32.309Z,16.47
2023-05-23T15:10:44.362Z,16.48
2023-05-23T15:14:48.063Z,16.66
2023-05-23T15:18:51.911Z,16.74
2023-05-23T15:22:56.221Z,16.67
2023-05-23T15:27:15.699Z,16.53
2023-05-23T15:31:23.192Z,16.78
2023-05-23T15:35:26.666Z,16.92
2023-05-23T15:39:32.425Z,17.06
2023-05-23T15:43:37.603Z,17.06
2023-05-23T15:47:40.666Z,17.28
2023-05-23T15:51:43.951Z,17.41
2023-05-23T15:55:49.654Z,17.27
2023-05-23T15:59:55.591Z,17.39
2023-05-23T16:03:58.753Z,17.40
2023-05-23T16:08:01.863Z,17.50
2023-05-23T16:12:04.924Z,17.64
2023-05-23T16:16:10.331Z,17.26
2023-05-23T16:20:14.499Z,17.08
2023-05-23T16:24:19.408Z,17.35
2023-05-23T16:28:22.382Z,17.44
2023-05-23T16:32:26.962Z,17.13
2023-05-23T16:36:31.087Z,17.06
2023-05-23T16:40:34.054Z,17.03
2023-05-23T16:44:37.705Z,17.02
2023-05-23T16:48:45.960Z,16.57
2023-05-23T16:52:52.473Z,16.35
2023-05-23T16:56:57.681Z,16.06
2023-05-23T17:01:01.304Z,15.75
2023-05-23T17:05:07.364Z,15.67
2023-05-23T17:09:10.978Z,15.82
2023-05-23T17:13:13.961Z,16.04
2023-05-23T17:17:17.175Z,15.91
2023-05-23T17:21:22.584Z,15.66
2023-05-23T17:25:26.195Z,15.60
2023-05-23T17:29:29.194Z,15.61
2023-05-23T17:33:32.908Z,15.47
2023-05-23T17:37:38.446Z,15.34
2023-05-23T17:41:41.893Z,15.26
2023-05-23T17:45:46.259Z,15.18
2023-05-23T17:49:49.551Z,15.04
2023-05-23T17:53:57.235Z,14.97
2023-05-23T17:58:00.730Z,14.81
2023-05-23T18:02:05.398Z,14.67
2023-05-23T18:06:09.631Z,14.60
2023-05-23T18:10:15.330Z,14.52
2023-05-23T18:14:18.938Z,14.44
2023-05-23T18:18:22.123Z,14.34
2023-05-23T18:22:26.825Z,14.22
2023-05-23T18:26:32.406Z,14.04
2023-05-23T18:30:36.117Z,14.01
2023-05-23T18:34:41.017Z,14.03
2023-05-23T18:38:44.693Z,14.01
2023-05-23T18:42:50.347Z,13.90
2023-05-23T18:47:03.455Z,13.74
2023-05-23T18:51:19.265Z,13.61
2023-05-23T18:55:38.818Z,13.53
2023-05-23T18:59:46.173Z,13.29
2023-05-23T19:03:52.042Z,13.30
2023-05-23T19:07:56.231Z,13.25
2023-05-23T19:12:04.132Z,13.04
2023-05-23T19:16:10.497Z,13.02
2023-05-23T19:20:18.415Z,12.98
2023-05-23T19:24:21.583Z,12.98
2023-05-23T19:28:25.218Z,12.92
2023-05-23T19:32:47.632Z,12.77
2023-05-23T19:37:09.353Z,12.58
2023-05-23T19:41:32.618Z,12.45
2023-05-23T19:45:52.082Z,12.49
2023-05-23T19:49:56.635Z,12.41
2023-05-23T19:54:07.063Z,12.33
2023-05-23T19:58:13.037Z,12.24
2023-05-23T20:02:17.176Z,12.14
2023-05-23T20:06:23.117Z,12.07
2023-05-23T20:10:27.219Z,12.01
2023-05-23T20:14:34.132Z,12.00
2023-05-23T20:18:37.986Z,11.86
2023-05-23T20:22:56.667Z,11.73
2023-05-23T20:27:05.907Z,11.64
2023-05-23T20:31:15.897Z,11.60
2023-05-23T20:35:36.619Z,11.51
2023-05-23T20:39:58.024Z,11.48
2023-05-23T20:44:17.164Z,11.45
2023-05-23T20:48:20.161Z,11.43
2023-05-23T20:52:30.848Z,11.45
2023-05-23T20:56:42.820Z,11.40
2023-05-23T21:00:58.731Z,11.33
2023-05-23T21:05:09.038Z,11.36
2023-05-23T21:09:18.085Z,11.34
2023-05-23T21:13:28.218Z,11.34
2023-05-23T21:17:32.835Z,11.31
2023-05-23T21:21:38.351Z,11.29
2023-05-23T21:25:47.250Z,11.27
2023-05-23T21:30:06.550Z,11.18
2023-05-23T21:34:23.291Z,11.13
2023-05-23T21:38:29.433Z,11.02
2023-05-23T21:42:33.130Z,10.97
2023-05-23T21:46:38.501Z,10.94
2023-05-23T21:50:41.637Z,10.89
2023-05-23T21:54:46.809Z,10.78
2023-05-23T21:58:50.273Z,10.68
2023-05-23T22:02:55.865Z,10.58
2023-05-23T22:06:59.865Z,10.56
2023-05-23T22:11:04.438Z,10.57
2023-05-23T22:15:13.145Z,10.55
2023-05-23T22:23:40.166Z,10.49
2023-05-23T22:27:48.870Z,10.54
2023-05-23T22:31:53.144Z,10.54
2023-05-23T22:35:58.557Z,10.45
2023-05-23T22:40:03.858Z,10.42
2023-05-23T22:44:06.900Z,10.39
2023-05-23T22:48:11.543Z,10.29
2023-05-23T22:52:20.320Z,10.26
2023-05-23T22:56:23.592Z,10.22
2023-05-23T23:00:27.046Z,10.18
2023-05-23T23:04:32.282Z,10.05
2023-05-23T23:08:38.591Z,10.02
2023-05-23T23:12:41.624Z,9.97
2023-05-23T23:16:50.855Z,9.99
2023-05-23T23:20:53.712Z,9.95
2023-05-23T23:24:58.400Z,9.88
2023-05-23T23:29:03.123Z,9.91
2023-05-23T23:33:06.271Z,9.84
2023-05-23T23:37:09.532Z,9.85
2023-05-23T23:41:14.449Z,9.86
2023-05-23T23:45:17.232Z,9.76
2023-05-23T23:49:20.423Z,9.66
2023-05-23T23:53:23.345Z,9.69
2023-05-23T23:57:27.672Z,9.71
